createdAt,value
2022-09-26T00:00:40.355Z,540.3
2022-09-26T00:01:42.459Z,539.7
2022-09-26T00:02:44.667Z,539.6
2022-09-26T00:03:46.376Z,539.4
2022-09-26T00:04:48.061Z,539.3
2022-09-26T00:05:49.811Z,538.9
2022-09-26T00:06:51.517Z,538.7
2022-09-26T00:07:53.163Z,538.8
2022-09-26T00:08:54.813Z,538.7
2022-09-26T00:09:56.355Z,539.2
2022-09-26T00:10:57.901Z,539.4
2022-09-26T00:11:59.557Z,539.1
2022-09-26T00:13:01.404Z,538.8
2022-09-26T00:14:02.942Z,538.7
2022-09-26T00:15:04.482Z,539
2022-09-26T00:16:06.121Z,539.4
2022-09-26T00:17:08.163Z,539.4
2022-09-26T00:18:10.024Z,539.5
2022-09-26T00:19:12.122Z,539.2
2022-09-26T00:20:13.963Z,539.4
2022-09-26T00:21:15.805Z,539.4
2022-09-26T00:22:17.524Z,539.7
2022-09-26T00:23:19.173Z,540
2022-09-26T00:24:20.815Z,539.9
2022-09-26T00:25:22.515Z,539.8
2022-09-26T00:26:24.073Z,539.9
2022-09-26T00:27:25.768Z,539.9
2022-09-26T00:28:27.317Z,540.1
2022-09-26T00:29:28.882Z,540.5
2022-09-26T00:30:30.936Z,541
2022-09-26T00:31:32.540Z,540.5
2022-09-26T00:32:34.234Z,540.4
2022-09-26T00:33:35.821Z,539.9
2022-09-26T00:34:37.474Z,539.5
2022-09-26T00:35:39.118Z,539.3
2022-09-26T00:36:40.782Z,539.2
2022-09-26T00:37:42.616Z,539.4
2022-09-26T00:38:44.236Z,539.8
2022-09-26T00:39:45.904Z,540.1
2022-09-26T00:40:47.945Z,540.3
2022-09-26T00:41:49.838Z,540.2
2022-09-26T00:42:51.574Z,540.5
2022-09-26T00:43:53.220Z,540.5
2022-09-26T00:44:55.069Z,540.6
2022-09-26T00:45:57.085Z,540.2
2022-09-26T00:46:58.736Z,540.6
2022-09-26T00:48:00.437Z,540.6
2022-09-26T00:49:02.163Z,541.5
2022-09-26T00:50:03.697Z,541.7
2022-09-26T00:51:05.236Z,541.6
2022-09-26T00:52:10.237Z,541
2022-09-26T00:53:12.106Z,540.9
2022-09-26T00:54:13.856Z,540.6
2022-09-26T00:55:15.701Z,540.9
2022-09-26T00:56:17.285Z,541.5
2022-09-26T00:57:19.010Z,541.3
2022-09-26T00:58:20.554Z,540.9
2022-09-26T00:59:22.216Z,540.8
2022-09-26T01:00:24.032Z,540.4
2022-09-26T01:01:26.128Z,540.6
2022-09-26T01:02:28.546Z,541
2022-09-26T01:03:30.313Z,541.5
2022-09-26T01:04:31.863Z,541.7
2022-09-26T01:05:33.501Z,541.5
2022-09-26T01:06:35.039Z,541.5
2022-09-26T01:07:36.823Z,541.5
2022-09-26T01:08:38.525Z,541.8
2022-09-26T01:09:40.066Z,541.7
2022-09-26T01:10:41.833Z,541.8
2022-09-26T01:11:43.480Z,542
2022-09-26T01:12:45.137Z,542
2022-09-26T01:13:46.672Z,542.1
2022-09-26T01:14:48.413Z,542.3
2022-09-26T01:15:49.952Z,542.2
2022-09-26T01:16:52.115Z,542.7
2022-09-26T01:17:53.875Z,542.4
2022-09-26T01:18:55.427Z,542.4
2022-09-26T01:19:57.149Z,542.1
2022-09-26T01:20:58.777Z,542.1
2022-09-26T01:22:00.323Z,542.4
2022-09-26T01:23:02.232Z,542.9
2022-09-26T01:24:03.921Z,542.9
2022-09-26T01:25:05.582Z,542.6
2022-09-26T01:26:07.120Z,542.5
2022-09-26T01:27:08.662Z,542.5
2022-09-26T01:28:10.417Z,543
2022-09-26T01:29:12.459Z,543.1
2022-09-26T01:30:14.236Z,543.1
2022-09-26T01:31:16.100Z,543.4
2022-09-26T01:32:17.780Z,544.1
2022-09-26T01:33:19.646Z,543.6
2022-09-26T01:34:21.230Z,543.1
2022-09-26T01:35:22.883Z,542.6
2022-09-26T01:36:24.586Z,542.4
2022-09-26T01:37:26.129Z,542.5
2022-09-26T01:38:28.003Z,542.8
2022-09-26T01:39:29.648Z,542.9
2022-09-26T01:40:31.654Z,542.8
2022-09-26T01:41:33.364Z,542.4
2022-09-26T01:42:35.020Z,542.3
2022-09-26T01:43:36.732Z,542.2
2022-09-26T01:44:38.274Z,542.2
2022-09-26T01:45:40.224Z,542.2
2022-09-26T01:46:41.960Z,542.3
2022-09-26T01:47:43.504Z,542.4
2022-09-26T01:48:45.056Z,542.5
2022-09-26T01:49:46.731Z,542.5
2022-09-26T01:50:48.476Z,542.8
2022-09-26T01:51:50.123Z,542.9
2022-09-26T01:52:51.765Z,543
2022-09-26T01:53:53.624Z,542.9
2022-09-26T01:54:55.324Z,542.8
2022-09-26T01:55:56.971Z,542.7
2022-09-26T01:56:58.654Z,543
2022-09-26T01:58:00.214Z,543.2
2022-09-26T01:59:01.793Z,543.4
2022-09-26T02:00:03.453Z,543.4
2022-09-26T02:01:05.582Z,543.5
2022-09-26T02:02:07.640Z,543.4
2022-09-26T02:03:09.346Z,543.6
2022-09-26T02:04:11.058Z,544
2022-09-26T02:05:12.602Z,544
2022-09-26T02:06:14.264Z,544.2
2022-09-26T02:07:15.819Z,544.2
2022-09-26T02:08:17.355Z,544.4
2022-09-26T02:09:19.121Z,544.2
2022-09-26T02:10:20.836Z,543.9
2022-09-26T02:11:22.447Z,544.3
2022-09-26T02:12:24.019Z,544.6
2022-09-26T02:13:25.689Z,544.8
2022-09-26T02:14:27.233Z,545.2
2022-09-26T02:15:28.764Z,545
2022-09-26T02:16:30.919Z,545.4
2022-09-26T02:17:32.465Z,545.4
2022-09-26T02:18:34.109Z,545.4
2022-09-26T02:19:35.769Z,545.4
2022-09-26T02:20:37.359Z,545.3
2022-09-26T02:21:39.027Z,545.1
2022-09-26T02:22:40.647Z,544.7
2022-09-26T02:23:42.458Z,544.8
2022-09-26T02:24:44.206Z,544.8
2022-09-26T02:25:46.014Z,544.8
2022-09-26T02:26:47.659Z,544.9
2022-09-26T02:27:49.283Z,545.3
2022-09-26T02:28:51.072Z,545.1
2022-09-26T02:29:52.644Z,545.8
2022-09-26T02:30:54.281Z,545.6
2022-09-26T02:31:56.449Z,546.1
2022-09-26T02:32:58.276Z,546.4
2022-09-26T02:33:59.937Z,546.4
2022-09-26T02:35:01.573Z,546.8
2022-09-26T02:36:03.195Z,546.5
2022-09-26T02:37:04.726Z,546.5
2022-09-26T02:38:06.432Z,546.5
2022-09-26T02:39:08.097Z,546.8
2022-09-26T02:40:10.334Z,547.2
2022-09-26T02:41:12.126Z,547.8
2022-09-26T02:42:13.678Z,548.1
2022-09-26T02:43:15.316Z,548.2
2022-09-26T02:44:16.863Z,548.6
2022-09-26T02:45:18.441Z,548.5
2022-09-26T02:46:20.695Z,548.8
2022-09-26T02:47:22.279Z,548.6
2022-09-26T02:48:23.834Z,548.6
2022-09-26T02:49:25.337Z,548.4
2022-09-26T02:50:27.076Z,548.6
2022-09-26T02:51:31.586Z,548.4
2022-09-26T02:52:33.294Z,548.1
2022-09-26T02:53:34.871Z,548
2022-09-26T02:54:36.488Z,547.9
2022-09-26T02:55:38.271Z,548.1
2022-09-26T02:56:39.978Z,548
2022-09-26T02:57:41.626Z,547.7
2022-09-26T02:58:43.174Z,547.8
2022-09-26T02:59:44.708Z,547.6
2022-09-26T03:00:46.903Z,547.6
2022-09-26T03:01:48.528Z,547.8
2022-09-26T03:02:50.159Z,547.4
2022-09-26T03:03:51.739Z,547.2
2022-09-26T03:04:53.783Z,547.4
2022-09-26T03:05:55.717Z,547.5
2022-09-26T03:06:57.332Z,547.9
2022-09-26T03:08:01.535Z,548.3
2022-09-26T03:09:03.222Z,548.2
2022-09-26T03:10:04.742Z,548.4
2022-09-26T03:11:06.654Z,548.4
2022-09-26T03:12:08.346Z,548.1
2022-09-26T03:13:09.928Z,548.7
2022-09-26T03:14:11.576Z,548.9
2022-09-26T03:15:13.187Z,548.9
2022-09-26T03:16:15.485Z,548.7
2022-09-26T03:17:17.195Z,548.7
2022-09-26T03:18:18.733Z,549.5
2022-09-26T03:19:20.278Z,549.4
2022-09-26T03:20:21.943Z,549.3
2022-09-26T03:21:23.602Z,549.2
2022-09-26T03:22:25.148Z,548.8
2022-09-26T03:23:26.789Z,548.4
2022-09-26T03:24:28.334Z,548.7
2022-09-26T03:25:30.012Z,548.6
2022-09-26T03:26:31.835Z,548.9
2022-09-26T03:27:33.534Z,549.2
2022-09-26T03:28:38.583Z,548.8
2022-09-26T03:29:40.412Z,548.9
2022-09-26T03:30:42.069Z,548.8
2022-09-26T03:31:44.030Z,549.2
2022-09-26T03:32:45.771Z,549.5
2022-09-26T03:33:47.327Z,549.4
2022-09-26T03:34:48.988Z,549.8
2022-09-26T03:35:50.518Z,549.9
2022-09-26T03:36:52.176Z,550.1
2022-09-26T03:37:53.755Z,550.6
2022-09-26T03:38:55.448Z,550.8
2022-09-26T03:39:57.186Z,550.8
2022-09-26T03:40:59.511Z,550.7
2022-09-26T03:42:01.510Z,550.5
2022-09-26T03:43:03.233Z,550.1
2022-09-26T03:44:04.825Z,550.1
2022-09-26T03:45:06.355Z,550
2022-09-26T03:46:08.322Z,550.4
2022-09-26T03:47:09.933Z,550.9
2022-09-26T03:48:11.476Z,551.1
2022-09-26T03:49:13.843Z,551.5
2022-09-26T03:50:15.669Z,551.8
2022-09-26T03:51:17.300Z,551.9
2022-09-26T03:52:19.081Z,552.1
2022-09-26T03:53:20.621Z,551.8
2022-09-26T03:54:22.356Z,551.9
2022-09-26T03:55:23.898Z,551.3
2022-09-26T03:56:25.664Z,551
2022-09-26T03:57:27.333Z,550.8
2022-09-26T03:58:29.035Z,550.7
2022-09-26T03:59:30.581Z,550.7
2022-09-26T04:00:32.682Z,550.3
2022-09-26T04:01:34.946Z,550.4
2022-09-26T04:02:37.300Z,550.5
2022-09-26T04:03:39.008Z,550.5
2022-09-26T04:04:40.674Z,550.3
2022-09-26T04:05:42.330Z,550.6
2022-09-26T04:06:43.984Z,551.1
2022-09-26T04:07:45.523Z,551
2022-09-26T04:08:47.248Z,551.3
2022-09-26T04:09:48.985Z,551.3
2022-09-26T04:10:50.522Z,551.2
2022-09-26T04:11:52.189Z,551.3
2022-09-26T04:12:53.964Z,551.5
2022-09-26T04:13:55.770Z,551.4
2022-09-26T04:14:57.532Z,551.1
2022-09-26T04:15:59.501Z,551.3
2022-09-26T04:17:01.059Z,551.4
2022-09-26T04:18:02.691Z,550.8
2022-09-26T04:19:04.345Z,550.9
2022-09-26T04:20:06.049Z,551.3
2022-09-26T04:21:10.663Z,551.1
2022-09-26T04:22:12.320Z,551.4
2022-09-26T04:23:13.880Z,551.3
2022-09-26T04:24:15.607Z,551.1
2022-09-26T04:25:17.457Z,551.1
2022-09-26T04:26:25.129Z,550.8
2022-09-26T04:27:26.853Z,550.7
2022-09-26T04:28:28.646Z,550.9
2022-09-26T04:29:30.477Z,550.1
2022-09-26T04:30:32.012Z,550.1
2022-09-26T04:31:33.994Z,549.6
2022-09-26T04:32:35.813Z,549.4
2022-09-26T04:33:37.367Z,549.4
2022-09-26T04:34:38.912Z,549.5
2022-09-26T04:35:40.684Z,549.4
2022-09-26T04:36:42.252Z,549.7
2022-09-26T04:37:43.768Z,549.4
2022-09-26T04:38:45.422Z,548.8
2022-09-26T04:39:47.072Z,549.2
2022-09-26T04:40:48.937Z,548.8
2022-09-26T04:41:50.763Z,548.5
2022-09-26T04:42:52.298Z,548.6
2022-09-26T04:43:54.039Z,548.6
2022-09-26T04:44:55.771Z,548.7
2022-09-26T04:45:57.749Z,549.1
2022-09-26T04:46:59.591Z,549.3
2022-09-26T04:48:01.434Z,549.1
2022-09-26T04:49:03.404Z,548.9
2022-09-26T04:50:05.225Z,549.6
2022-09-26T04:51:06.857Z,549.7
2022-09-26T04:52:08.616Z,549.7
2022-09-26T04:53:10.464Z,549.8
2022-09-26T04:54:12.162Z,549.8
2022-09-26T04:55:13.962Z,550.3
2022-09-26T04:56:15.511Z,550.6
2022-09-26T04:57:20.551Z,551
2022-09-26T04:58:22.212Z,551.4
2022-09-26T04:59:23.969Z,550.6
2022-09-26T05:00:25.670Z,550.9
2022-09-26T05:01:27.808Z,550.5
2022-09-26T05:02:31.375Z,550.6
2022-09-26T05:03:33.116Z,549.9
2022-09-26T05:04:34.673Z,550.3
2022-09-26T05:05:36.373Z,550.1
2022-09-26T05:06:37.933Z,549.7
2022-09-26T05:07:39.464Z,549.9
2022-09-26T05:08:41.199Z,549.8
2022-09-26T05:09:42.737Z,549.6
2022-09-26T05:10:44.391Z,549.5
2022-09-26T05:11:46.070Z,549.6
2022-09-26T05:12:47.614Z,550.3
2022-09-26T05:13:54.446Z,550.5
2022-09-26T05:14:56.221Z,550.8
2022-09-26T05:15:58.253Z,551
2022-09-26T05:16:59.916Z,551.6
2022-09-26T05:18:01.532Z,551.6
2022-09-26T05:19:03.186Z,551.9
2022-09-26T05:20:04.916Z,551.8
2022-09-26T05:21:06.456Z,552.1
2022-09-26T05:22:08.147Z,552.3
2022-09-26T05:23:09.724Z,552.5
2022-09-26T05:24:11.484Z,552.1
2022-09-26T05:25:13.182Z,552.1
2022-09-26T05:26:14.824Z,551.9
2022-09-26T05:27:16.435Z,551.9
2022-09-26T05:28:18.096Z,552.2
2022-09-26T05:29:20.133Z,552.2
2022-09-26T05:30:22.136Z,551.8
2022-09-26T05:31:24.193Z,551.9
2022-09-26T05:32:25.924Z,552
2022-09-26T05:33:27.652Z,551.6
2022-09-26T05:34:29.202Z,551.8
2022-09-26T05:35:30.858Z,552.1
2022-09-26T05:36:35.292Z,552.5
2022-09-26T05:37:37.082Z,553.3
2022-09-26T05:38:38.662Z,553.1
2022-09-26T05:39:43.270Z,553.2
2022-09-26T05:40:45.554Z,553
2022-09-26T05:41:47.502Z,553.4
2022-09-26T05:42:49.220Z,553
2022-09-26T05:43:50.894Z,553.3
2022-09-26T05:44:52.471Z,553.1
2022-09-26T05:45:54.280Z,553.9
2022-09-26T05:46:56.465Z,553.9
2022-09-26T05:47:58.265Z,554.5
2022-09-26T05:49:00.006Z,554.2
2022-09-26T05:50:01.699Z,554.4
2022-09-26T05:51:03.409Z,554
2022-09-26T05:52:05.125Z,553.3
2022-09-26T05:53:06.764Z,552.8
2022-09-26T05:54:08.400Z,551.9
2022-09-26T05:55:10.101Z,552.1
2022-09-26T05:56:19.948Z,551.9
2022-09-26T05:57:24.526Z,552.1
2022-09-26T05:58:26.108Z,551.8
2022-09-26T05:59:27.769Z,552
2022-09-26T06:00:29.967Z,552.2
2022-09-26T06:01:31.943Z,552.2
2022-09-26T06:02:34.219Z,552.2
2022-09-26T06:03:35.944Z,552
2022-09-26T06:04:37.676Z,552.2
2022-09-26T06:05:39.296Z,552.4
2022-09-26T06:06:41.044Z,551.8
2022-09-26T06:07:42.580Z,552.2
2022-09-26T06:08:44.260Z,552.2
2022-09-26T06:09:46.004Z,552
2022-09-26T06:10:23.681Z,552.7
2022-09-26T06:11:25.365Z,552.2
2022-09-26T06:12:27.080Z,551.9
2022-09-26T06:13:28.740Z,551.8
2022-09-26T06:14:30.404Z,551.5
2022-09-26T06:15:32.052Z,550.7
2022-09-26T06:16:33.887Z,550.6
2022-09-26T06:17:35.654Z,550.5
2022-09-26T06:18:37.666Z,550.3
2022-09-26T06:19:39.233Z,550.7
2022-09-26T06:20:40.756Z,550.5
2022-09-26T06:21:42.371Z,550.3
2022-09-26T06:22:44.147Z,550.6
2022-09-26T06:23:45.808Z,550.3
2022-09-26T06:24:47.747Z,550.5
2022-09-26T06:25:49.294Z,550.6
2022-09-26T06:26:50.956Z,550.8
2022-09-26T06:28:00.769Z,551.3
2022-09-26T06:29:02.452Z,551.2
2022-09-26T06:30:04.139Z,551.1
2022-09-26T06:31:05.759Z,550.9
2022-09-26T06:32:08.062Z,551
2022-09-26T06:33:09.969Z,550.5
2022-09-26T06:34:11.644Z,550.7
2022-09-26T06:35:13.227Z,550.6
2022-09-26T06:36:14.892Z,550.5
2022-09-26T06:37:19.483Z,550.6
2022-09-26T06:38:21.326Z,550
2022-09-26T06:39:22.962Z,550
2022-09-26T06:40:25.105Z,550.6
2022-09-26T06:41:26.889Z,550.6
2022-09-26T06:42:28.697Z,551.2
2022-09-26T06:43:30.593Z,552
2022-09-26T06:44:32.251Z,552.1
2022-09-26T06:45:34.043Z,552.2
2022-09-26T06:46:35.980Z,552.4
2022-09-26T06:47:37.803Z,552.2
2022-09-26T06:48:39.554Z,552.3
2022-09-26T06:49:41.260Z,552.2
2022-09-26T06:50:42.878Z,551.9
2022-09-26T06:51:44.771Z,552.1
2022-09-26T06:52:46.335Z,552
2022-09-26T06:53:48.061Z,552.4
2022-09-26T06:54:49.741Z,552
2022-09-26T06:55:51.357Z,552.2
2022-09-26T06:56:53.071Z,552
2022-09-26T06:57:54.835Z,551.9
2022-09-26T06:58:56.414Z,551.7
2022-09-26T06:59:58.050Z,551.9
2022-09-26T07:01:00.818Z,551.4
2022-09-26T07:02:03.407Z,551.3
2022-09-26T07:03:05.347Z,551.5
2022-09-26T07:04:07.105Z,551.8
2022-09-26T07:05:08.905Z,551.3
2022-09-26T07:06:10.665Z,551.9
2022-09-26T07:07:14.856Z,552.2
2022-09-26T07:08:16.437Z,552.1
2022-09-26T07:09:20.103Z,551.8
2022-09-26T07:10:22.177Z,551.3
2022-09-26T07:12:16.307Z,551.1
2022-09-26T07:13:18.054Z,550.9
2022-09-26T07:14:19.739Z,551.1
2022-09-26T07:15:21.512Z,551.6
2022-09-26T07:16:23.696Z,551.8
2022-09-26T07:17:25.434Z,552.2
2022-09-26T07:18:27.197Z,552.4
2022-09-26T07:19:29.045Z,552.5
2022-09-26T07:20:30.843Z,552.9
2022-09-26T07:21:32.475Z,552.5
2022-09-26T07:22:34.171Z,552
2022-09-26T07:23:35.993Z,551.9
2022-09-26T07:24:37.715Z,551.6
2022-09-26T07:25:39.314Z,552.1
2022-09-26T07:26:40.899Z,552.4
2022-09-26T07:27:42.579Z,552.4
2022-09-26T07:28:44.374Z,552.9
2022-09-26T07:29:45.967Z,552.6
2022-09-26T07:30:47.691Z,552.7
2022-09-26T07:31:50.187Z,552.8
2022-09-26T07:32:51.942Z,553
2022-09-26T07:33:53.714Z,552.2
2022-09-26T07:34:55.474Z,552.3
2022-09-26T07:36:05.553Z,552.2
2022-09-26T07:37:07.492Z,552.3
2022-09-26T07:38:09.286Z,552.7
2022-09-26T07:39:10.949Z,553.2
2022-09-26T07:40:13.099Z,553.1
2022-09-26T07:41:14.789Z,553.3
2022-09-26T07:42:16.463Z,553.3
2022-09-26T07:46:06.860Z,552.1
2022-09-26T07:47:08.906Z,552.3
2022-09-26T07:48:10.519Z,552.2
2022-09-26T07:49:12.227Z,552.7
2022-09-26T07:50:14.125Z,552.8
2022-09-26T07:51:15.876Z,552.1
2022-09-26T07:52:17.624Z,552.3
2022-09-26T07:53:19.291Z,552.4
2022-09-26T07:54:20.953Z,552.2
2022-09-26T07:55:22.659Z,552.5
2022-09-26T07:56:24.505Z,552.8
2022-09-26T07:57:26.173Z,552.9
2022-09-26T07:58:27.728Z,553.3
2022-09-26T07:59:29.486Z,553.5
2022-09-26T08:00:31.196Z,554.1
2022-09-26T08:01:33.414Z,554.4
2022-09-26T08:02:35.959Z,554.7
2022-09-26T08:03:37.873Z,555.2
2022-09-26T08:04:39.785Z,555.2
2022-09-26T08:05:41.492Z,555.3
2022-09-26T08:06:43.218Z,555.5
2022-09-26T08:07:44.907Z,555.2
2022-09-26T08:08:46.550Z,555.1
2022-09-26T08:09:48.142Z,555.3
2022-09-26T08:10:49.737Z,555.4
2022-09-26T08:11:51.369Z,555.5
2022-09-26T08:12:53.197Z,555.9
2022-09-26T08:13:54.864Z,555.9
2022-09-26T08:14:56.600Z,556
2022-09-26T08:15:58.540Z,556
2022-09-26T08:17:00.182Z,556.6
2022-09-26T08:18:01.834Z,556.4
2022-09-26T08:19:03.920Z,557.4
2022-09-26T08:20:08.723Z,557.6
2022-09-26T08:21:10.514Z,557.4
2022-09-26T08:22:12.302Z,557.4
2022-09-26T08:23:13.987Z,557.7
2022-09-26T08:24:16.285Z,557.4
2022-09-26T08:25:18.019Z,557.3
2022-09-26T08:26:19.698Z,557.2
2022-09-26T08:27:21.363Z,557.1
2022-09-26T08:28:23.214Z,557.2
2022-09-26T08:29:24.992Z,558.1
2022-09-26T08:30:26.760Z,558.7
2022-09-26T08:31:29.146Z,559
2022-09-26T08:32:30.894Z,559.3
2022-09-26T08:33:32.753Z,559.7
2022-09-26T08:34:34.438Z,559.3
2022-09-26T08:35:36.010Z,559.1
2022-09-26T08:36:37.757Z,559.3
2022-09-26T08:37:39.433Z,559.2
2022-09-26T08:38:41.200Z,559.3
2022-09-26T08:39:42.753Z,559.7
2022-09-26T08:40:44.927Z,559.8
2022-09-26T08:41:46.676Z,559.8
2022-09-26T08:42:48.314Z,559.3
2022-09-26T08:43:50.344Z,559.5
2022-09-26T08:44:52.105Z,559.3
2022-09-26T08:45:53.706Z,559.4
2022-09-26T08:46:55.720Z,559.4
2022-09-26T08:47:57.438Z,559.7
2022-09-26T08:48:58.989Z,559.7
2022-09-26T08:50:00.712Z,559.6
2022-09-26T08:51:02.459Z,559.8
2022-09-26T08:52:04.249Z,559.8
2022-09-26T08:53:08.809Z,559.9
2022-09-26T08:54:10.505Z,560.1
2022-09-26T08:55:12.328Z,560.2
2022-09-26T08:56:14.066Z,560.5
2022-09-26T08:57:15.811Z,560.6
2022-09-26T08:58:17.457Z,561
2022-09-26T08:59:19.166Z,561.1
2022-09-26T09:00:21.156Z,560.8
2022-09-26T09:01:23.236Z,560.9
2022-09-26T09:02:25.819Z,560.1
2022-09-26T09:03:27.514Z,559.9
2022-09-26T09:04:29.052Z,560
2022-09-26T09:05:30.843Z,560.3
2022-09-26T09:06:32.594Z,560.6
2022-09-26T09:07:34.544Z,560.9
2022-09-26T09:08:36.278Z,560.9
2022-09-26T09:09:38.132Z,560.8
2022-09-26T09:10:39.692Z,560.9
2022-09-26T09:11:41.424Z,561.2
2022-09-26T09:12:43.190Z,561.2
2022-09-26T09:13:47.482Z,561.2
2022-09-26T09:15:26.830Z,560.6
2022-09-26T09:16:29.033Z,560.8
2022-09-26T09:17:30.824Z,560.3
2022-09-26T09:18:32.493Z,560.6
2022-09-26T09:19:34.127Z,561.2
2022-09-26T09:20:35.748Z,561.9
2022-09-26T09:21:42.621Z,561.9
2022-09-26T09:22:44.497Z,561.8
2022-09-26T09:23:46.198Z,561.9
2022-09-26T09:24:47.922Z,562.2
2022-09-26T09:25:50.589Z,562.3
2022-09-26T09:27:54.375Z,561.7
2022-09-26T09:28:56.395Z,562.2
2022-09-26T09:29:57.963Z,562.1
2022-09-26T09:31:00.059Z,562
2022-09-26T09:32:01.929Z,561.8
2022-09-26T09:33:03.700Z,561.9
2022-09-26T09:34:05.237Z,561.9
2022-09-26T09:35:07.003Z,561.9
2022-09-26T09:36:08.642Z,561.9
2022-09-26T09:37:10.297Z,561.8
2022-09-26T09:38:11.976Z,561.8
2022-09-26T09:39:13.654Z,561.9
2022-09-26T09:40:15.771Z,562.3
2022-09-26T09:41:17.576Z,562
2022-09-26T09:42:19.200Z,562.3
2022-09-26T09:43:20.738Z,562.4
2022-09-26T09:44:22.300Z,562.5
2022-09-26T09:45:23.939Z,562.6
2022-09-26T09:46:26.028Z,562.5
2022-09-26T09:47:27.849Z,563.1
2022-09-26T09:48:29.512Z,563.4
2022-09-26T09:49:31.047Z,563.1
2022-09-26T09:50:32.700Z,563.6
2022-09-26T09:51:40.060Z,563.5
2022-09-26T09:52:41.809Z,563.4
2022-09-26T09:53:43.786Z,563.9
2022-09-26T09:54:45.402Z,564.3
2022-09-26T09:55:47.009Z,564
2022-09-26T09:56:48.558Z,564.4
2022-09-26T09:57:50.103Z,564.5
2022-09-26T09:58:51.774Z,564.7
2022-09-26T09:59:53.352Z,564.6
2022-09-26T10:00:54.979Z,565
2022-09-26T10:01:56.719Z,565
2022-09-26T10:02:58.704Z,565.1
2022-09-26T10:04:00.529Z,565.2
2022-09-26T10:05:02.086Z,565.5
2022-09-26T10:06:03.791Z,565.9
2022-09-26T10:07:05.493Z,566.5
2022-09-26T10:08:07.127Z,566.3
2022-09-26T10:09:41.432Z,566.9
2022-09-26T10:10:43.148Z,567
2022-09-26T10:11:52.996Z,567.4
2022-09-26T10:12:54.670Z,567.6
2022-09-26T10:13:56.240Z,567.5
2022-09-26T10:14:57.919Z,567.3
2022-09-26T10:16:00.246Z,567.3
2022-09-26T10:17:01.922Z,566.9
2022-09-26T10:18:27.614Z,566.6
2022-09-26T10:19:29.414Z,566.3
2022-09-26T10:20:31.075Z,566.3
2022-09-26T10:21:32.612Z,566.1
2022-09-26T10:22:34.249Z,566.5
2022-09-26T10:23:35.919Z,566.4
2022-09-26T10:24:37.816Z,566.7
2022-09-26T10:25:39.517Z,566.5
2022-09-26T10:26:41.201Z,566.4
2022-09-26T10:27:42.744Z,566.8
2022-09-26T10:28:44.292Z,567.2
2022-09-26T10:29:45.969Z,567.1
2022-09-26T10:30:47.985Z,567.3
2022-09-26T10:31:50.294Z,567.4
2022-09-26T10:32:57.337Z,567.4
2022-09-26T10:33:59.093Z,567.3
2022-09-26T10:35:00.835Z,567
2022-09-26T10:36:02.663Z,567.2
2022-09-26T10:37:04.205Z,567.5
2022-09-26T10:38:05.762Z,567.6
2022-09-26T10:39:07.438Z,568
2022-09-26T10:40:08.974Z,568.1
2022-09-26T10:41:10.763Z,568.7
2022-09-26T10:42:12.657Z,568.8
2022-09-26T10:43:14.289Z,568.7
2022-09-26T10:44:16.452Z,569.4
2022-09-26T10:45:18.101Z,569.7
2022-09-26T10:46:20.336Z,569.9
2022-09-26T10:47:22.007Z,569.9
2022-09-26T10:48:23.727Z,569.9
2022-09-26T10:49:25.377Z,570.1
2022-09-26T10:50:27.143Z,570.5
2022-09-26T10:51:28.678Z,570.2
2022-09-26T10:52:30.316Z,570.2
2022-09-26T10:53:31.982Z,570.4
2022-09-26T10:54:33.749Z,570.3
2022-09-26T10:55:35.372Z,570.4
2022-09-26T10:56:37.048Z,570.8
2022-09-26T10:57:38.752Z,570.6
2022-09-26T10:58:40.628Z,570.5
2022-09-26T10:59:42.364Z,570.3
2022-09-26T11:00:44.048Z,570.6
2022-09-26T11:01:45.988Z,571.2
2022-09-26T11:02:47.810Z,571.4
2022-09-26T11:03:49.826Z,571.9
2022-09-26T11:04:51.509Z,571.8
2022-09-26T11:05:53.211Z,572.2
2022-09-26T11:06:54.887Z,572.2
2022-09-26T11:07:56.672Z,572.5
2022-09-26T11:08:58.213Z,572.5
2022-09-26T11:10:00.026Z,572.6
2022-09-26T11:11:01.723Z,572.9
2022-09-26T11:12:03.363Z,573
2022-09-26T11:13:05.065Z,573
2022-09-26T11:14:07.102Z,572.5
2022-09-26T11:15:08.811Z,572.7
2022-09-26T11:16:10.994Z,572.7
2022-09-26T11:17:12.638Z,573
2022-09-26T11:18:14.248Z,572.7
2022-09-26T11:19:16.359Z,573.4
2022-09-26T11:20:18.020Z,573.6
2022-09-26T11:21:30.120Z,573.7
2022-09-26T11:22:31.670Z,573.9
2022-09-26T11:23:33.329Z,573.9
2022-09-26T11:24:34.978Z,574
2022-09-26T11:25:36.691Z,574.1
2022-09-26T11:26:38.368Z,574.1
2022-09-26T11:27:40.120Z,574
2022-09-26T11:28:41.846Z,573.8
2022-09-26T11:29:43.571Z,573.8
2022-09-26T11:30:45.568Z,574.1
2022-09-26T11:31:47.171Z,574
2022-09-26T11:32:48.816Z,574.2
2022-09-26T11:33:50.735Z,574.4
2022-09-26T11:34:52.348Z,574.7
2022-09-26T11:35:53.961Z,575.1
2022-09-26T11:36:55.614Z,576
2022-09-26T11:37:57.223Z,575.8
2022-09-26T11:38:59.035Z,576.1
2022-09-26T11:40:00.766Z,576.1
2022-09-26T11:41:02.750Z,576
2022-09-26T11:42:04.646Z,576.1
2022-09-26T11:43:06.430Z,576.1
2022-09-26T11:44:08.053Z,576.5
2022-09-26T11:45:09.943Z,576.7
2022-09-26T11:46:11.973Z,577.1
2022-09-26T11:47:16.442Z,577.1
2022-09-26T11:48:18.133Z,577.3
2022-09-26T11:49:19.851Z,577
2022-09-26T11:50:21.444Z,577.3
2022-09-26T11:51:23.098Z,577.2
2022-09-26T11:52:24.826Z,577.5
2022-09-26T11:53:26.538Z,578.2
2022-09-26T11:54:28.175Z,578
2022-09-26T11:55:29.743Z,578.2
2022-09-26T11:56:31.372Z,578.3
2022-09-26T11:57:33.122Z,579.2
2022-09-26T11:58:34.999Z,579.3
2022-09-26T11:59:36.820Z,579.2
2022-09-26T12:00:38.468Z,579.4
2022-09-26T12:01:40.016Z,579.8
2022-09-26T12:02:42.561Z,579.8
2022-09-26T12:03:44.955Z,580.1
2022-09-26T12:04:46.788Z,579.8
2022-09-26T12:05:48.632Z,580.5
2022-09-26T12:06:50.396Z,580.5
2022-09-26T12:07:51.946Z,580.6
2022-09-26T12:08:53.647Z,580.7
2022-09-26T12:09:55.529Z,580.4
2022-09-26T12:10:57.293Z,580.5
2022-09-26T12:11:59.193Z,580.2
2022-09-26T12:13:00.966Z,580.2
2022-09-26T12:14:02.616Z,580.2
2022-09-26T12:15:04.231Z,580.2
2022-09-26T12:16:06.347Z,580
2022-09-26T12:17:08.213Z,580.5
2022-09-26T12:18:10.015Z,580.6
2022-09-26T12:19:19.351Z,581.1
2022-09-26T12:20:21.010Z,581.1
2022-09-26T12:21:22.845Z,581
2022-09-26T12:22:24.654Z,581
2022-09-26T12:23:26.452Z,581.3
2022-09-26T12:24:27.995Z,581.4
2022-09-26T12:25:29.552Z,581.6
2022-09-26T12:26:31.186Z,581.7
2022-09-26T12:27:32.918Z,581.8
2022-09-26T12:28:34.683Z,581.6
2022-09-26T12:29:36.393Z,582.2
2022-09-26T12:30:38.259Z,582.1
2022-09-26T12:31:40.480Z,581.7
2022-09-26T12:32:42.380Z,581.7
2022-09-26T12:33:44.055Z,581.6
2022-09-26T12:34:45.818Z,581.9
2022-09-26T12:35:47.426Z,581.6
2022-09-26T12:36:49.154Z,581.6
2022-09-26T12:37:50.902Z,581.7
2022-09-26T12:38:57.460Z,581.7
2022-09-26T12:39:59.229Z,581.9
2022-09-26T12:41:01.429Z,582.3
2022-09-26T12:42:03.217Z,582.3
2022-09-26T12:43:05.197Z,582.9
2022-09-26T12:44:06.815Z,582.7
2022-09-26T12:45:08.702Z,582.8
2022-09-26T12:46:10.821Z,583.3
2022-09-26T12:47:12.674Z,583.7
2022-09-26T12:48:14.295Z,583.4
2022-09-26T12:49:16.645Z,583.9
2022-09-26T12:50:18.431Z,584.4
2022-09-26T12:51:22.737Z,584.2
2022-09-26T12:52:28.044Z,584.6
2022-09-26T12:53:29.603Z,584.5
2022-09-26T12:54:31.288Z,584.4
2022-09-26T12:55:33.037Z,584.6
2022-09-26T12:56:34.635Z,584.5
2022-09-26T12:57:36.512Z,584.6
2022-09-26T12:58:38.191Z,585
2022-09-26T12:59:39.749Z,585
2022-09-26T13:00:41.420Z,584.8
2022-09-26T13:01:43.919Z,585
2022-09-26T13:02:46.088Z,584.9
2022-09-26T13:03:48.018Z,585.4
2022-09-26T13:04:49.759Z,585.1
2022-09-26T13:05:51.518Z,585.5
2022-09-26T13:07:21.214Z,585.8
2022-09-26T13:08:22.949Z,585.9
2022-09-26T13:09:24.694Z,586.6
2022-09-26T13:10:29.276Z,586.2
2022-09-26T13:11:33.353Z,586.6
2022-09-26T13:12:35.008Z,586.8
2022-09-26T13:13:36.750Z,586.7
2022-09-26T13:14:38.411Z,586.5
2022-09-26T13:15:40.634Z,586.3
2022-09-26T13:16:42.408Z,586.4
2022-09-26T13:17:44.113Z,586
2022-09-26T13:18:46.005Z,586.2
2022-09-26T13:19:47.646Z,586.1
2022-09-26T13:20:49.350Z,586.2
2022-09-26T13:21:51.067Z,586.5
2022-09-26T13:22:52.609Z,586.3
2022-09-26T13:23:54.294Z,586.5
2022-09-26T13:24:55.831Z,586.5
2022-09-26T13:25:57.514Z,586.4
2022-09-26T13:26:59.107Z,586.5
2022-09-26T13:28:00.795Z,586.3